sensor_id;sensor_type;location;lat;lon;timestamp;P1;P2;P0
69349;PMS5003;64554;43.452;4.934;2024-02-26T00:00:23;38.40;29.40;17.40
69349;PMS5003;64554;43.452;4.934;2024-02-26T00:02:50;46.00;38.00;22.75
69349;PMS5003;64554;43.452;4.934;2024-02-26T00:05:16;55.00;44.75;30.00
69349;PMS5003;64554;43.452;4.934;2024-02-26T00:07:43;19.40;19.40;13.40
69349;PMS5003;64554;43.452;4.934;2024-02-26T00:10:10;21.50;17.75;8.75
69349;PMS5003;64554;43.452;4.934;2024-02-26T00:12:36;61.60;49.20;31.20
69349;PMS5003;64554;43.452;4.934;2024-02-26T00:15:06;60.80;48.20;30.20
69349;PMS5003;64554;43.452;4.934;2024-02-26T00:17:32;38.75;32.50;18.50
69349;PMS5003;64554;43.452;4.934;2024-02-26T00:19:59;69.50;55.75;35.00
69349;PMS5003;64554;43.452;4.934;2024-02-26T00:22:27;20.20;20.20;12.60
69349;PMS5003;64554;43.452;4.934;2024-02-26T00:24:53;47.75;38.50;22.50
69349;PMS5003;64554;43.452;4.934;2024-02-26T00:27:20;29.75;26.50;14.75
69349;PMS5003;64554;43.452;4.934;2024-02-26T00:29:46;52.60;42.80;26.20
69349;PMS5003;64554;43.452;4.934;2024-02-26T00:32:13;48.25;38.25;23.50
69349;PMS5003;64554;43.452;4.934;2024-02-26T00:34:40;45.00;34.50;22.00
69349;PMS5003;64554;43.452;4.934;2024-02-26T00:37:06;27.40;23.20;16.40
69349;PMS5003;64554;43.452;4.934;2024-02-26T00:39:33;30.75;26.75;18.00
69349;PMS5003;64554;43.452;4.934;2024-02-26T00:42:00;32.25;28.00;15.00
69349;PMS5003;64554;43.452;4.934;2024-02-26T00:44:26;17.60;16.60;8.40
69349;PMS5003;64554;43.452;4.934;2024-02-26T00:46:53;23.40;20.40;11.00
69349;PMS5003;64554;43.452;4.934;2024-02-26T00:49:19;41.33;34.33;19.33
69349;PMS5003;64554;43.452;4.934;2024-02-26T00:51:46;30.50;28.25;15.00
69349;PMS5003;64554;43.452;4.934;2024-02-26T00:54:12;7.80;7.20;4.80
69349;PMS5003;64554;43.452;4.934;2024-02-26T00:56:39;20.75;18.75;10.00
69349;PMS5003;64554;43.452;4.934;2024-02-26T00:59:06;7.20;7.00;5.00
69349;PMS5003;64554;43.452;4.934;2024-02-26T01:01:32;7.00;6.00;4.00
69349;PMS5003;64554;43.452;4.934;2024-02-26T01:03:59;4.60;3.00;3.00
69349;PMS5003;64554;43.452;4.934;2024-02-26T01:06:25;10.00;7.00;4.00
69349;PMS5003;64554;43.452;4.934;2024-02-26T01:08:52;4.50;4.50;2.50
69349;PMS5003;64554;43.452;4.934;2024-02-26T01:11:19;5.00;5.00;3.00
69349;PMS5003;64554;43.452;4.934;2024-02-26T01:13:45;9.00;8.00;3.00
69349;PMS5003;64554;43.452;4.934;2024-02-26T01:16:12;8.00;5.50;3.50
69349;PMS5003;64554;43.452;4.934;2024-02-26T01:18:39;5.00;4.00;3.00
69349;PMS5003;64554;43.452;4.934;2024-02-26T01:21:05;7.20;6.20;2.80
69349;PMS5003;64554;43.452;4.934;2024-02-26T01:23:35;4.00;3.00;1.00
69349;PMS5003;64554;43.452;4.934;2024-02-26T01:26:01;3.25;3.25;2.25
69349;PMS5003;64554;43.452;4.934;2024-02-26T01:28:29;5.50;3.50;2.50
69349;PMS5003;64554;43.452;4.934;2024-02-26T01:30:55;7.00;6.25;4.25
69349;PMS5003;64554;43.452;4.934;2024-02-26T01:33:22;7.00;6.00;4.00
69349;PMS5003;64554;43.452;4.934;2024-02-26T01:35:49;3.75;3.75;2.75
69349;PMS5003;64554;43.452;4.934;2024-02-26T01:38:15;3.50;2.75;1.75
69349;PMS5003;64554;43.452;4.934;2024-02-26T01:40:42;3.20;3.20;1.80
69349;PMS5003;64554;43.452;4.934;2024-02-26T01:43:08;6.00;3.00;2.00
69349;PMS5003;64554;43.452;4.934;2024-02-26T01:45:35;4.00;1.60;0.60
69349;PMS5003;64554;43.452;4.934;2024-02-26T01:48:01;4.00;4.00;2.33
69349;PMS5003;64554;43.452;4.934;2024-02-26T01:50:28;4.00;2.75;1.75
69349;PMS5003;64554;43.452;4.934;2024-02-26T01:52:55;2.00;2.00;1.40
69349;PMS5003;64554;43.452;4.934;2024-02-26T01:55:22;2.25;2.25;0.00
69349;PMS5003;64554;43.452;4.934;2024-02-26T01:57:50;4.00;3.00;1.60
69349;PMS5003;64554;43.452;4.934;2024-02-26T02:00:18;1.00;1.00;1.00
69349;PMS5003;64554;43.452;4.934;2024-02-26T02:02:46;1.60;1.00;1.00
69349;PMS5003;64554;43.452;4.934;2024-02-26T02:05:17;2.00;2.00;1.00
69349;PMS5003;64554;43.452;4.934;2024-02-26T02:07:46;0.60;0.60;0.20
69349;PMS5003;64554;43.452;4.934;2024-02-26T02:10:15;2.00;0.60;0.00
69349;PMS5003;64554;43.452;4.934;2024-02-26T02:12:43;0.00;0.00;0.00
69349;PMS5003;64554;43.452;4.934;2024-02-26T02:15:09;2.00;2.00;1.00
69349;PMS5003;64554;43.452;4.934;2024-02-26T02:17:36;3.00;2.00;0.50
69349;PMS5003;64554;43.452;4.934;2024-02-26T02:20:03;4.50;2.00;1.00
69349;PMS5003;64554;43.452;4.934;2024-02-26T02:22:30;2.00;2.00;1.00
69349;PMS5003;64554;43.452;4.934;2024-02-26T02:24:58;1.00;1.00;1.00
69349;PMS5003;64554;43.452;4.934;2024-02-26T02:27:25;1.00;1.00;1.00
69349;PMS5003;64554;43.452;4.934;2024-02-26T02:29:52;1.40;1.40;1.00
69349;PMS5003;64554;43.452;4.934;2024-02-26T02:32:19;2.00;2.00;1.00
69349;PMS5003;64554;43.452;4.934;2024-02-26T02:34:46;3.00;2.00;1.00
69349;PMS5003;64554;43.452;4.934;2024-02-26T02:37:13;3.00;2.00;1.00
69349;PMS5003;64554;43.452;4.934;2024-02-26T02:39:39;2.80;2.80;0.00
69349;PMS5003;64554;43.452;4.934;2024-02-26T02:42:08;1.00;1.00;0.50
69349;PMS5003;64554;43.452;4.934;2024-02-26T02:44:36;1.50;0.50;0.00
69349;PMS5003;64554;43.452;4.934;2024-02-26T02:47:03;0.00;0.00;0.00
69349;PMS5003;64554;43.452;4.934;2024-02-26T02:49:29;0.00;0.00;0.00
69349;PMS5003;64554;43.452;4.934;2024-02-26T02:51:56;0.00;0.00;0.00
69349;PMS5003;64554;43.452;4.934;2024-02-26T02:54:24;0.00;0.00;0.00
69349;PMS5003;64554;43.452;4.934;2024-02-26T02:56:50;0.00;0.00;0.00
69349;PMS5003;64554;43.452;4.934;2024-02-26T02:59:17;0.00;0.00;0.00
69349;PMS5003;64554;43.452;4.934;2024-02-26T03:01:43;0.00;0.00;0.00
69349;PMS5003;64554;43.452;4.934;2024-02-26T03:04:10;0.00;0.00;0.00
69349;PMS5003;64554;43.452;4.934;2024-02-26T03:06:36;0.20;0.00;0.00
69349;PMS5003;64554;43.452;4.934;2024-02-26T03:09:04;0.00;0.00;0.00
69349;PMS5003;64554;43.452;4.934;2024-02-26T03:11:30;0.00;0.00;0.00
69349;PMS5003;64554;43.452;4.934;2024-02-26T03:13:57;0.00;0.00;0.00
69349;PMS5003;64554;43.452;4.934;2024-02-26T03:16:23;0.50;0.50;0.00
69349;PMS5003;64554;43.452;4.934;2024-02-26T03:18:50;0.00;0.00;0.00
69349;PMS5003;64554;43.452;4.934;2024-02-26T03:21:17;0.00;0.00;0.00
69349;PMS5003;64554;43.452;4.934;2024-02-26T03:23:44;0.00;0.00;0.00
69349;PMS5003;64554;43.452;4.934;2024-02-26T03:26:11;0.00;0.00;0.00
69349;PMS5003;64554;43.452;4.934;2024-02-26T03:28:40;0.00;0.00;0.00
69349;PMS5003;64554;43.452;4.934;2024-02-26T03:31:06;0.00;0.00;0.00
69349;PMS5003;64554;43.452;4.934;2024-02-26T03:33:33;0.00;0.00;0.00
69349;PMS5003;64554;43.452;4.934;2024-02-26T03:36:00;0.00;0.00;0.00
69349;PMS5003;64554;43.452;4.934;2024-02-26T03:38:28;0.00;0.00;0.00
69349;PMS5003;64554;43.452;4.934;2024-02-26T03:40:54;1.00;0.00;0.00
69349;PMS5003;64554;43.452;4.934;2024-02-26T03:43:21;1.00;0.00;0.00
69349;PMS5003;64554;43.452;4.934;2024-02-26T03:45:47;0.00;0.00;0.00
69349;PMS5003;64554;43.452;4.934;2024-02-26T03:48:14;0.00;0.00;0.00
69349;PMS5003;64554;43.452;4.934;2024-02-26T03:50:41;0.00;0.00;0.00
69349;PMS5003;64554;43.452;4.934;2024-02-26T03:53:07;0.25;0.00;0.00
69349;PMS5003;64554;43.452;4.934;2024-02-26T03:55:39;0.00;0.00;0.00
69349;PMS5003;64554;43.452;4.934;2024-02-26T03:58:08;1.00;1.00;0.00
69349;PMS5003;64554;43.452;4.934;2024-02-26T04:00:35;0.00;0.00;0.00
69349;PMS5003;64554;43.452;4.934;2024-02-26T04:03:02;0.00;0.00;0.00
69349;PMS5003;64554;43.452;4.934;2024-02-26T04:05:29;0.00;0.00;0.00
69349;PMS5003;64554;43.452;4.934;2024-02-26T04:07:55;0.75;0.75;0.00
69349;PMS5003;64554;43.452;4.934;2024-02-26T04:10:22;0.00;0.00;0.00
69349;PMS5003;64554;43.452;4.934;2024-02-26T04:12:48;0.00;0.00;0.00
69349;PMS5003;64554;43.452;4.934;2024-02-26T04:15:15;0.00;0.00;0.00
69349;PMS5003;64554;43.452;4.934;2024-02-26T04:17:41;0.00;0.00;0.00
69349;PMS5003;64554;43.452;4.934;2024-02-26T04:20:12;0.00;0.00;0.00
69349;PMS5003;64554;43.452;4.934;2024-02-26T04:22:39;0.00;0.00;0.00
69349;PMS5003;64554;43.452;4.934;2024-02-26T04:25:05;0.00;0.00;0.00
69349;PMS5003;64554;43.452;4.934;2024-02-26T04:27:32;1.00;1.00;0.00
69349;PMS5003;64554;43.452;4.934;2024-02-26T04:29:58;0.50;0.50;0.00
69349;PMS5003;64554;43.452;4.934;2024-02-26T04:32:25;0.00;0.00;0.00
69349;PMS5003;64554;43.452;4.934;2024-02-26T04:34:52;0.00;0.00;0.00
69349;PMS5003;64554;43.452;4.934;2024-02-26T04:37:18;0.20;0.20;0.00
69349;PMS5003;64554;43.452;4.934;2024-02-26T04:39:45;1.40;0.00;0.00
69349;PMS5003;64554;43.452;4.934;2024-02-26T04:42:16;0.00;0.00;0.00
69349;PMS5003;64554;43.452;4.934;2024-02-26T04:44:42;0.00;0.00;0.00
69349;PMS5003;64554;43.452;4.934;2024-02-26T04:47:09;1.00;1.00;0.00
69349;PMS5003;64554;43.452;4.934;2024-02-26T04:49:35;1.00;1.00;0.00
69349;PMS5003;64554;43.452;4.934;2024-02-26T04:52:02;0.75;0.75;0.00
69349;PMS5003;64554;43.452;4.934;2024-02-26T04:54:29;1.00;1.00;0.50
69349;PMS5003;64554;43.452;4.934;2024-02-26T04:56:56;0.00;0.00;0.00
69349;PMS5003;64554;43.452;4.934;2024-02-26T04:59:22;0.00;0.00;0.00
69349;PMS5003;64554;43.452;4.934;2024-02-26T05:01:49;1.00;1.00;1.00
69349;PMS5003;64554;43.452;4.934;2024-02-26T05:04:17;3.00;1.00;0.80
69349;PMS5003;64554;43.452;4.934;2024-02-26T05:06:44;2.00;2.00;1.00
69349;PMS5003;64554;43.452;4.934;2024-02-26T05:09:10;0.00;0.00;0.00
69349;PMS5003;64554;43.452;4.934;2024-02-26T05:11:37;2.00;2.00;1.00
69349;PMS5003;64554;43.452;4.934;2024-02-26T05:14:06;1.00;1.00;0.00
69349;PMS5003;64554;43.452;4.934;2024-02-26T05:16:33;0.00;0.00;0.00
69349;PMS5003;64554;43.452;4.934;2024-02-26T05:18:59;0.00;0.00;0.00
69349;PMS5003;64554;43.452;4.934;2024-02-26T05:21:26;0.00;0.00;0.00
69349;PMS5003;64554;43.452;4.934;2024-02-26T05:23:53;1.00;1.00;0.80
69349;PMS5003;64554;43.452;4.934;2024-02-26T05:26:20;0.00;0.00;0.00
69349;PMS5003;64554;43.452;4.934;2024-02-26T05:28:47;1.00;1.00;0.25
69349;PMS5003;64554;43.452;4.934;2024-02-26T05:31:14;0.00;0.00;0.00
69349;PMS5003;64554;43.452;4.934;2024-02-26T05:33:41;2.00;2.00;1.00
69349;PMS5003;64554;43.452;4.934;2024-02-26T05:36:07;0.00;0.00;0.00
69349;PMS5003;64554;43.452;4.934;2024-02-26T05:38:34;1.00;1.00;0.00
69349;PMS5003;64554;43.452;4.934;2024-02-26T05:41:01;2.40;2.40;1.00
69349;PMS5003;64554;43.452;4.934;2024-02-26T05:43:27;2.00;2.00;1.00
69349;PMS5003;64554;43.452;4.934;2024-02-26T05:45:54;2.00;2.00;1.00
69349;PMS5003;64554;43.452;4.934;2024-02-26T05:48:21;0.00;0.00;0.00
69349;PMS5003;64554;43.452;4.934;2024-02-26T05:50:48;1.00;1.00;1.00
69349;PMS5003;64554;43.452;4.934;2024-02-26T05:53:14;1.00;1.00;0.40
69349;PMS5003;64554;43.452;4.934;2024-02-26T05:55:41;1.00;1.00;1.00
69349;PMS5003;64554;43.452;4.934;2024-02-26T05:58:08;0.75;0.75;0.75
69349;PMS5003;64554;43.452;4.934;2024-02-26T06:00:34;2.00;1.00;0.25
69349;PMS5003;64554;43.452;4.934;2024-02-26T06:03:01;0.60;0.60;0.60
69349;PMS5003;64554;43.452;4.934;2024-02-26T06:05:28;1.00;1.00;1.00
69349;PMS5003;64554;43.452;4.934;2024-02-26T06:07:55;3.00;3.00;2.00
69349;PMS5003;64554;43.452;4.934;2024-02-26T06:10:23;7.60;7.60;5.60
69349;PMS5003;64554;43.452;4.934;2024-02-26T06:12:49;24.20;23.20;13.20
69349;PMS5003;64554;43.452;4.934;2024-02-26T06:15:16;5.00;4.00;3.00
69349;PMS5003;64554;43.452;4.934;2024-02-26T06:17:42;8.50;6.75;3.75
69349;PMS5003;64554;43.452;4.934;2024-02-26T06:20:09;12.40;12.40;8.40
69349;PMS5003;64554;43.452;4.934;2024-02-26T06:22:42;17.50;17.00;11.00
69349;PMS5003;64554;43.452;4.934;2024-02-26T06:25:09;5.00;3.00;2.75
69349;PMS5003;64554;43.452;4.934;2024-02-26T06:27:36;1.00;1.00;1.00
69349;PMS5003;64554;43.452;4.934;2024-02-26T06:30:02;1.50;1.50;1.00
69349;PMS5003;64554;43.452;4.934;2024-02-26T06:32:29;7.00;7.00;6.00
69349;PMS5003;64554;43.452;4.934;2024-02-26T06:34:56;7.00;6.00;4.00
69349;PMS5003;64554;43.452;4.934;2024-02-26T06:37:23;1.25;1.25;1.00
69349;PMS5003;64554;43.452;4.934;2024-02-26T06:39:50;4.00;4.00;2.00
69349;PMS5003;64554;43.452;4.934;2024-02-26T06:42:18;2.40;1.40;1.00
69349;PMS5003;64554;43.452;4.934;2024-02-26T06:44:45;2.00;2.00;1.00
69349;PMS5003;64554;43.452;4.934;2024-02-26T06:47:11;0.50;0.50;0.00
69349;PMS5003;64554;43.452;4.934;2024-02-26T06:49:38;3.00;3.00;2.00
69349;PMS5003;64554;43.452;4.934;2024-02-26T06:52:05;11.00;9.40;6.00
69349;PMS5003;64554;43.452;4.934;2024-02-26T06:54:32;15.00;14.00;9.50
69349;PMS5003;64554;43.452;4.934;2024-02-26T06:56:59;31.00;29.00;19.00
69349;PMS5003;64554;43.452;4.934;2024-02-26T06:59:26;10.00;10.00;7.00
69349;PMS5003;64554;43.452;4.934;2024-02-26T07:01:53;13.00;13.00;8.00
69349;PMS5003;64554;43.452;4.934;2024-02-26T07:04:21;23.75;23.25;14.75
69349;PMS5003;64554;43.452;4.934;2024-02-26T07:06:47;17.00;15.00;11.00
69349;PMS5003;64554;43.452;4.934;2024-02-26T07:09:14;16.40;12.60;9.20
69349;PMS5003;64554;43.452;4.934;2024-02-26T07:11:42;9.00;9.00;7.00
69349;PMS5003;64554;43.452;4.934;2024-02-26T07:14:09;6.00;6.00;4.00
69349;PMS5003;64554;43.452;4.934;2024-02-26T07:16:36;13.00;12.00;8.00
69349;PMS5003;64554;43.452;4.934;2024-02-26T07:19:03;14.00;14.00;9.00
69349;PMS5003;64554;43.452;4.934;2024-02-26T07:21:29;13.00;13.00;8.50
69349;PMS5003;64554;43.452;4.934;2024-02-26T07:23:56;7.40;6.00;4.00
69349;PMS5003;64554;43.452;4.934;2024-02-26T07:26:23;8.60;8.60;5.60
69349;PMS5003;64554;43.452;4.934;2024-02-26T07:28:52;9.50;7.00;5.00
69349;PMS5003;64554;43.452;4.934;2024-02-26T07:31:19;12.20;10.00;7.00
69349;PMS5003;64554;43.452;4.934;2024-02-26T07:33:45;8.75;7.75;5.75
69349;PMS5003;64554;43.452;4.934;2024-02-26T07:36:12;19.00;16.50;11.50
69349;PMS5003;64554;43.452;4.934;2024-02-26T07:38:39;25.60;22.60;14.60
69349;PMS5003;64554;43.452;4.934;2024-02-26T07:41:09;10.00;10.00;7.00
69349;PMS5003;64554;43.452;4.934;2024-02-26T07:43:36;13.75;13.75;9.00
69349;PMS5003;64554;43.452;4.934;2024-02-26T07:46:03;18.50;18.50;13.50
69349;PMS5003;64554;43.452;4.934;2024-02-26T07:48:29;17.20;15.80;10.80
69349;PMS5003;64554;43.452;4.934;2024-02-26T07:50:56;13.20;10.80;7.80
69349;PMS5003;64554;43.452;4.934;2024-02-26T07:53:25;16.80;15.80;9.80
69349;PMS5003;64554;43.452;4.934;2024-02-26T07:55:52;19.25;18.25;11.00
69349;PMS5003;64554;43.452;4.934;2024-02-26T07:58:20;22.20;21.00;12.80
69349;PMS5003;64554;43.452;4.934;2024-02-26T08:00:48;22.50;22.00;12.00
69349;PMS5003;64554;43.452;4.934;2024-02-26T08:03:15;20.00;16.67;9.00
69349;PMS5003;64554;43.452;4.934;2024-02-26T08:05:42;16.40;11.60;6.00
69349;PMS5003;64554;43.452;4.934;2024-02-26T08:08:09;12.80;11.20;6.80
69349;PMS5003;64554;43.452;4.934;2024-02-26T08:10:36;16.00;14.25;9.00
69349;PMS5003;64554;43.452;4.934;2024-02-26T08:13:03;12.00;12.00;8.00
69349;PMS5003;64554;43.452;4.934;2024-02-26T08:15:32;12.25;11.25;7.00
69349;PMS5003;64554;43.452;4.934;2024-02-26T08:18:01;14.25;13.00;7.75
69349;PMS5003;64554;43.452;4.934;2024-02-26T08:20:31;14.00;14.00;7.50
69349;PMS5003;64554;43.452;4.934;2024-02-26T08:22:57;14.00;13.00;9.60
69349;PMS5003;64554;43.452;4.934;2024-02-26T08:25:24;18.40;18.40;11.40
69349;PMS5003;64554;43.452;4.934;2024-02-26T08:27:51;23.75;22.25;13.25
69349;PMS5003;64554;43.452;4.934;2024-02-26T08:30:17;19.50;18.50;11.00
69349;PMS5003;64554;43.452;4.934;2024-02-26T08:32:45;15.00;14.00;10.40
69349;PMS5003;64554;43.452;4.934;2024-02-26T08:35:16;9.00;9.00;7.00
69349;PMS5003;64554;43.452;4.934;2024-02-26T08:37:46;5.00;5.00;3.00
69349;PMS5003;64554;43.452;4.934;2024-02-26T08:40:13;7.00;7.00;5.00
69349;PMS5003;64554;43.452;4.934;2024-02-26T08:42:40;5.40;4.60;3.60
69349;PMS5003;64554;43.452;4.934;2024-02-26T08:45:07;7.00;7.00;6.00
69349;PMS5003;64554;43.452;4.934;2024-02-26T08:47:34;10.40;8.40;5.40
69349;PMS5003;64554;43.452;4.934;2024-02-26T08:50:01;5.50;5.50;5.00
69349;PMS5003;64554;43.452;4.934;2024-02-26T08:52:27;4.75;4.75;3.00
69349;PMS5003;64554;43.452;4.934;2024-02-26T08:54:54;5.75;4.75;4.00
69349;PMS5003;64554;43.452;4.934;2024-02-26T08:57:20;4.00;4.00;3.00
69349;PMS5003;64554;43.452;4.934;2024-02-26T08:59:47;6.80;5.20;4.00
69349;PMS5003;64554;43.452;4.934;2024-02-26T09:02:14;4.00;4.00;2.40
69349;PMS5003;64554;43.452;4.934;2024-02-26T09:04:40;9.00;9.00;6.00
69349;PMS5003;64554;43.452;4.934;2024-02-26T09:07:07;8.00;7.40;6.40
69349;PMS5003;64554;43.452;4.934;2024-02-26T09:09:34;3.00;3.00;3.00
69349;PMS5003;64554;43.452;4.934;2024-02-26T09:12:00;3.50;3.50;2.00
69349;PMS5003;64554;43.452;4.934;2024-02-26T09:14:27;3.00;3.00;2.50
69349;PMS5003;64554;43.452;4.934;2024-02-26T09:16:54;1.00;1.00;0.00
69349;PMS5003;64554;43.452;4.934;2024-02-26T09:19:20;2.40;2.40;0.60
69349;PMS5003;64554;43.452;4.934;2024-02-26T09:21:47;1.50;1.50;0.50
69349;PMS5003;64554;43.452;4.934;2024-02-26T09:24:14;2.00;2.00;0.50
69349;PMS5003;64554;43.452;4.934;2024-02-26T09:26:41;2.20;2.20;1.60
69349;PMS5003;64554;43.452;4.934;2024-02-26T09:29:08;1.00;1.00;1.00
69349;PMS5003;64554;43.452;4.934;2024-02-26T09:31:35;3.00;3.00;2.00
69349;PMS5003;64554;43.452;4.934;2024-02-26T09:34:01;1.80;1.80;0.60
69349;PMS5003;64554;43.452;4.934;2024-02-26T09:36:28;2.50;2.50;1.50
69349;PMS5003;64554;43.452;4.934;2024-02-26T09:38:55;2.00;2.00;1.50
69349;PMS5003;64554;43.452;4.934;2024-02-26T09:41:30;2.00;2.00;1.00
69349;PMS5003;64554;43.452;4.934;2024-02-26T09:43:57;1.00;1.00;1.00
69349;PMS5003;64554;43.452;4.934;2024-02-26T09:46:25;1.00;1.00;0.00
69349;PMS5003;64554;43.452;4.934;2024-02-26T09:48:51;0.50;0.50;0.00
69349;PMS5003;64554;43.452;4.934;2024-02-26T09:51:19;3.00;1.00;1.00
69349;PMS5003;64554;43.452;4.934;2024-02-26T09:53:46;0.60;0.60;0.00
69349;PMS5003;64554;43.452;4.934;2024-02-26T09:56:13;2.00;2.00;1.00
69349;PMS5003;64554;43.452;4.934;2024-02-26T09:58:41;1.60;1.60;0.60
69349;PMS5003;64554;43.452;4.934;2024-02-26T10:01:13;3.00;2.00;1.00
69349;PMS5003;64554;43.452;4.934;2024-02-26T10:03:42;3.40;3.40;2.00
69349;PMS5003;64554;43.452;4.934;2024-02-26T10:06:12;13.20;10.60;4.80
69349;PMS5003;64554;43.452;4.934;2024-02-26T10:08:39;7.40;7.20;5.00
69349;PMS5003;64554;43.452;4.934;2024-02-26T10:11:09;7.50;5.50;4.50
69349;PMS5003;64554;43.452;4.934;2024-02-26T10:13:36;15.50;13.50;10.50
69349;PMS5003;64554;43.452;4.934;2024-02-26T10:16:03;19.20;18.20;9.00
69349;PMS5003;64554;43.452;4.934;2024-02-26T10:18:52;23.00;21.00;12.80
69349;PMS5003;64554;43.452;4.934;2024-02-26T10:21:25;13.80;13.00;9.00
69349;PMS5003;64554;43.452;4.934;2024-02-26T10:23:52;16.00;15.00;9.00
69349;PMS5003;64554;43.452;4.934;2024-02-26T10:26:21;12.00;9.00;5.00
69349;PMS5003;64554;43.452;4.934;2024-02-26T10:28:48;6.00;6.00;4.75
69349;PMS5003;64554;43.452;4.934;2024-02-26T10:31:20;5.00;4.00;3.00
69349;PMS5003;64554;43.452;4.934;2024-02-26T10:33:47;4.00;4.00;3.00
69349;PMS5003;64554;43.452;4.934;2024-02-26T10:36:14;6.00;6.00;3.25
69349;PMS5003;64554;43.452;4.934;2024-02-26T10:38:41;7.00;5.20;2.60
69349;PMS5003;64554;43.452;4.934;2024-02-26T10:41:09;5.00;5.00;4.00
69349;PMS5003;64554;43.452;4.934;2024-02-26T10:43:39;6.40;4.60;2.60
69349;PMS5003;64554;43.452;4.934;2024-02-26T10:46:05;5.00;3.00;3.00
69349;PMS5003;64554;43.452;4.934;2024-02-26T10:48:32;7.60;5.00;3.00
69349;PMS5003;64554;43.452;4.934;2024-02-26T10:50:59;5.00;3.00;1.75
69349;PMS5003;64554;43.452;4.934;2024-02-26T10:53:28;4.00;4.00;2.00
69349;PMS5003;64554;43.452;4.934;2024-02-26T10:55:57;6.00;6.00;3.00
69349;PMS5003;64554;43.452;4.934;2024-02-26T10:58:24;6.00;5.00;3.00
69349;PMS5003;64554;43.452;4.934;2024-02-26T11:00:51;5.00;5.00;3.00
69349;PMS5003;64554;43.452;4.934;2024-02-26T11:03:19;5.75;5.75;3.25
69349;PMS5003;64554;43.452;4.934;2024-02-26T11:05:47;2.60;2.60;1.20
69349;PMS5003;64554;43.452;4.934;2024-02-26T11:08:18;4.80;4.00;2.80
69349;PMS5003;64554;43.452;4.934;2024-02-26T11:10:48;6.80;5.40;4.00
69349;PMS5003;64554;43.452;4.934;2024-02-26T11:13:17;4.20;3.20;2.00
69349;PMS5003;64554;43.452;4.934;2024-02-26T11:15:48;7.00;5.00;3.00
69349;PMS5003;64554;43.452;4.934;2024-02-26T11:18:15;5.60;5.60;3.00
69349;PMS5003;64554;43.452;4.934;2024-02-26T11:20:43;4.25;4.25;1.75
69349;PMS5003;64554;43.452;4.934;2024-02-26T11:23:11;4.00;4.00;2.00
69349;PMS5003;64554;43.452;4.934;2024-02-26T11:25:37;4.50;3.25;1.75
69349;PMS5003;64554;43.452;4.934;2024-02-26T11:28:06;2.00;2.00;1.00
69349;PMS5003;64554;43.452;4.934;2024-02-26T11:30:34;1.80;1.60;0.60
69349;PMS5003;64554;43.452;4.934;2024-02-26T11:33:02;2.60;2.60;0.60
69349;PMS5003;64554;43.452;4.934;2024-02-26T11:35:30;2.60;1.00;0.00
69349;PMS5003;64554;43.452;4.934;2024-02-26T11:37:57;2.00;2.00;1.00
69349;PMS5003;64554;43.452;4.934;2024-02-26T11:40:24;0.00;0.00;0.00
69349;PMS5003;64554;43.452;4.934;2024-02-26T11:42:54;0.00;0.00;0.00
69349;PMS5003;64554;43.452;4.934;2024-02-26T11:48:12;4.00;4.00;1.00
69349;PMS5003;64554;43.452;4.934;2024-02-26T11:50:40;2.00;1.00;1.00
69349;PMS5003;64554;43.452;4.934;2024-02-26T11:53:22;3.00;3.00;2.00
69349;PMS5003;64554;43.452;4.934;2024-02-26T11:58:34;2.00;2.00;1.00
69349;PMS5003;64554;43.452;4.934;2024-02-26T12:01:02;5.00;2.00;1.00
69349;PMS5003;64554;43.452;4.934;2024-02-26T12:03:29;3.00;2.00;2.00
69349;PMS5003;64554;43.452;4.934;2024-02-26T12:05:56;2.40;2.40;1.60
69349;PMS5003;64554;43.452;4.934;2024-02-26T12:08:22;4.40;3.00;2.00
69349;PMS5003;64554;43.452;4.934;2024-02-26T12:10:51;5.25;4.00;2.00
69349;PMS5003;64554;43.452;4.934;2024-02-26T12:13:21;3.50;3.50;1.50
69349;PMS5003;64554;43.452;4.934;2024-02-26T12:15:56;7.00;3.00;1.50
69349;PMS5003;64554;43.452;4.934;2024-02-26T12:18:24;4.20;4.00;2.00
69349;PMS5003;64554;43.452;4.934;2024-02-26T12:21:00;2.50;2.50;1.00
69349;PMS5003;64554;43.452;4.934;2024-02-26T12:23:28;3.00;2.00;1.00
69349;PMS5003;64554;43.452;4.934;2024-02-26T12:26:01;4.00;3.00;1.00
69349;PMS5003;64554;43.452;4.934;2024-02-26T12:28:32;2.00;2.00;0.00
69349;PMS5003;64554;43.452;4.934;2024-02-26T12:30:59;1.60;1.00;0.40
69349;PMS5003;64554;43.452;4.934;2024-02-26T12:33:26;0.60;0.60;0.00
69349;PMS5003;64554;43.452;4.934;2024-02-26T12:35:54;1.00;1.00;0.00
69349;PMS5003;64554;43.452;4.934;2024-02-26T12:38:21;2.00;2.00;1.00
69349;PMS5003;64554;43.452;4.934;2024-02-26T12:40:47;2.40;2.40;1.00
69349;PMS5003;64554;43.452;4.934;2024-02-26T12:43:15;3.60;2.40;2.00
69349;PMS5003;64554;43.452;4.934;2024-02-26T12:45:42;4.25;0.25;0.25
69349;PMS5003;64554;43.452;4.934;2024-02-26T12:48:12;3.00;2.00;1.00
69349;PMS5003;64554;43.452;4.934;2024-02-26T15:40:15;2.75;2.50;0.75
69349;PMS5003;64554;43.452;4.934;2024-02-26T15:42:43;5.80;4.40;0.40
69349;PMS5003;64554;43.452;4.934;2024-02-26T15:45:10;2.75;2.75;1.00
69349;PMS5003;64554;43.452;4.934;2024-02-26T15:47:36;3.80;0.60;0.00
69349;PMS5003;64554;43.452;4.934;2024-02-26T15:50:07;4.00;4.00;1.50
69349;PMS5003;64554;43.452;4.934;2024-02-26T15:52:33;2.80;2.80;1.80
69349;PMS5003;64554;43.452;4.934;2024-02-26T15:55:00;3.20;3.00;1.60
69349;PMS5003;64554;43.452;4.934;2024-02-26T15:57:26;3.80;2.00;0.00
69349;PMS5003;64554;43.452;4.934;2024-02-26T15:59:53;4.00;3.00;1.00
69349;PMS5003;64554;43.452;4.934;2024-02-26T16:02:21;1.25;0.25;0.00
69349;PMS5003;64554;43.452;4.934;2024-02-26T16:04:48;3.20;2.60;1.00
69349;PMS5003;64554;43.452;4.934;2024-02-26T16:07:18;4.50;2.50;1.00
69349;PMS5003;64554;43.452;4.934;2024-02-26T16:09:50;2.80;1.40;0.20
69349;PMS5003;64554;43.452;4.934;2024-02-26T16:12:18;3.00;1.75;0.75
69349;PMS5003;64554;43.452;4.934;2024-02-26T16:14:48;4.40;2.40;1.40
69349;PMS5003;64554;43.452;4.934;2024-02-26T16:17:19;3.00;3.00;1.00
69349;PMS5003;64554;43.452;4.934;2024-02-26T16:19:47;1.60;1.60;1.00
69349;PMS5003;64554;43.452;4.934;2024-02-26T16:22:14;3.60;3.00;1.60
69349;PMS5003;64554;43.452;4.934;2024-02-26T16:24:40;3.60;3.60;1.60
69349;PMS5003;64554;43.452;4.934;2024-02-26T16:27:07;10.80;8.00;2.40
69349;PMS5003;64554;43.452;4.934;2024-02-26T16:29:34;4.75;4.75;1.00
69349;PMS5003;64554;43.452;4.934;2024-02-26T16:32:00;3.50;2.50;1.50
69349;PMS5003;64554;43.452;4.934;2024-02-26T16:34:27;3.25;3.25;0.25
69349;PMS5003;64554;43.452;4.934;2024-02-26T16:36:53;3.00;2.00;2.00
69349;PMS5003;64554;43.452;4.934;2024-02-26T16:39:20;4.25;2.25;1.25
69349;PMS5003;64554;43.452;4.934;2024-02-26T16:41:47;4.75;2.25;0.25
69349;PMS5003;64554;43.452;4.934;2024-02-26T16:44:13;4.40;3.00;1.40
69349;PMS5003;64554;43.452;4.934;2024-02-26T16:46:41;2.00;2.00;1.00
69349;PMS5003;64554;43.452;4.934;2024-02-26T16:49:08;2.00;2.00;1.00
69349;PMS5003;64554;43.452;4.934;2024-02-26T16:51:36;7.00;3.40;2.00
69349;PMS5003;64554;43.452;4.934;2024-02-26T16:54:03;2.25;2.25;1.25
69349;PMS5003;64554;43.452;4.934;2024-02-26T16:56:29;4.60;4.60;2.20
69349;PMS5003;64554;43.452;4.934;2024-02-26T16:58:56;7.00;3.00;2.00
69349;PMS5003;64554;43.452;4.934;2024-02-26T17:01:23;6.00;4.00;3.00
69349;PMS5003;64554;43.452;4.934;2024-02-26T17:03:49;5.00;3.25;2.00
69349;PMS5003;64554;43.452;4.934;2024-02-26T17:06:16;4.20;3.80;2.00
69349;PMS5003;64554;43.452;4.934;2024-02-26T17:08:43;3.20;3.20;1.80
69349;PMS5003;64554;43.452;4.934;2024-02-26T17:11:11;12.00;9.00;3.00